createdAt,value
2018-11-23T00:00:41.003Z,71.43
2018-11-23T00:03:09.120Z,82.80
2018-11-23T00:05:37.170Z,82.03
2018-11-23T00:08:05.307Z,80.57
2018-11-23T00:10:33.618Z,81.30
2018-11-23T00:13:01.707Z,80.93
2018-11-23T00:15:29.871Z,79.70
2018-11-23T00:17:57.967Z,85.77
2018-11-23T00:20:27.297Z,81.10
2018-11-23T00:22:55.369Z,86.63
2018-11-23T00:25:24.479Z,91.60
2018-11-23T00:27:53.014Z,92.33
2018-11-23T00:30:22.474Z,83.43
2018-11-23T00:32:50.914Z,81.63
2018-11-23T00:35:38.614Z,87.70
2018-11-23T00:38:06.736Z,85.77
2018-11-23T00:40:34.838Z,84.70
2018-11-23T00:43:02.884Z,84.57
2018-11-23T00:45:30.977Z,86.20
2018-11-23T00:47:59.634Z,81.27
2018-11-23T00:50:46.877Z,84.20
2018-11-23T00:53:14.960Z,74.33
2018-11-23T00:55:43.010Z,87.57
2018-11-23T00:58:11.110Z,78.07
2018-11-23T01:00:39.155Z,84.67
2018-11-23T01:03:07.246Z,87.33
2018-11-23T01:05:35.303Z,86.40
2018-11-23T01:08:03.367Z,76.47
2018-11-23T01:10:31.542Z,82.40
2018-11-23T01:12:59.751Z,83.53
2018-11-23T01:15:27.711Z,88.47
2018-11-23T01:17:55.717Z,78.77
2018-11-23T01:20:24.977Z,89.90
2018-11-23T01:22:53.547Z,82.83
2018-11-23T01:25:22.570Z,80.10
2018-11-23T01:27:51.569Z,86.43
2018-11-23T01:30:24.086Z,84.40
2018-11-23T01:32:52.152Z,77.63
2018-11-23T01:35:20.223Z,84.60
2018-11-23T01:37:48.279Z,82.30
2018-11-23T01:40:35.493Z,79.50
2018-11-23T01:43:03.551Z,77.00
2018-11-23T01:45:31.614Z,80.87
2018-11-23T01:47:59.653Z,93.33
2018-11-23T01:50:29.086Z,89.87
2018-11-23T01:52:57.312Z,84.63
2018-11-23T01:55:25.804Z,78.93
2018-11-23T01:57:53.893Z,84.33
2018-11-23T02:00:23.288Z,77.70
2018-11-23T02:02:52.258Z,88.53
2018-11-23T02:05:20.278Z,71.77
2018-11-23T02:07:48.373Z,84.87
2018-11-23T02:10:17.215Z,78.30
2018-11-23T02:12:45.318Z,73.03
2018-11-23T02:15:15.230Z,74.50
2018-11-23T02:17:43.436Z,77.27
2018-11-23T02:20:13.109Z,72.17
2018-11-23T02:22:41.199Z,70.13
2018-11-23T02:25:09.281Z,69.33
2018-11-23T02:27:37.306Z,71.30
2018-11-23T02:30:26.487Z,64.43
2018-11-23T02:32:54.511Z,64.03
2018-11-23T02:35:22.605Z,66.33
2018-11-23T02:37:50.644Z,68.10
2018-11-23T02:40:19.673Z,66.50
2018-11-23T02:42:47.841Z,69.33
2018-11-23T02:45:35.515Z,69.30
2018-11-23T02:48:03.593Z,66.30
2018-11-23T02:50:31.625Z,64.50
2018-11-23T02:52:59.717Z,61.80
2018-11-23T02:55:27.765Z,63.73
2018-11-23T02:57:55.877Z,62.00
2018-11-23T03:00:23.917Z,62.47
2018-11-23T03:02:52.028Z,60.97
2018-11-23T03:05:21.392Z,62.10
2018-11-23T03:07:49.459Z,59.50
2018-11-23T03:10:17.872Z,56.03
2018-11-23T03:12:46.773Z,54.13
2018-11-23T03:15:16.433Z,57.13
2018-11-23T03:17:45.186Z,55.97
2018-11-23T03:20:15.116Z,58.07
2018-11-23T03:22:43.182Z,63.67
2018-11-23T03:25:12.049Z,62.27
2018-11-23T03:27:40.108Z,56.03
2018-11-23T03:30:11.032Z,56.63
2018-11-23T03:32:39.274Z,61.13
2018-11-23T03:35:07.409Z,54.67
2018-11-23T03:37:35.489Z,59.10
2018-11-23T03:40:03.505Z,55.50
2018-11-23T03:42:31.589Z,57.27
2018-11-23T03:44:59.640Z,57.97
2018-11-23T03:47:27.922Z,54.87
2018-11-23T03:49:56.008Z,52.67
2018-11-23T03:52:24.109Z,51.63
2018-11-23T03:54:52.192Z,56.40
2018-11-23T03:57:20.244Z,54.07
2018-11-23T03:59:48.328Z,51.93
2018-11-23T04:02:16.571Z,57.20
2018-11-23T04:04:44.652Z,53.53
2018-11-23T04:07:12.700Z,54.47
2018-11-23T04:09:40.776Z,55.17
2018-11-23T04:12:08.814Z,54.67
2018-11-23T04:14:36.876Z,51.33
2018-11-23T04:17:05.098Z,52.87
2018-11-23T04:19:33.159Z,55.97
2018-11-23T04:22:01.220Z,54.57
2018-11-23T04:24:29.302Z,56.60
2018-11-23T04:26:57.314Z,54.40
2018-11-23T04:29:25.383Z,51.50
2018-11-23T04:31:53.582Z,60.67
2018-11-23T04:34:21.663Z,58.80
2018-11-23T04:36:49.709Z,51.93
2018-11-23T04:39:17.734Z,53.20
2018-11-23T04:41:46.450Z,60.93
2018-11-23T04:44:13.858Z,56.63
2018-11-23T04:46:41.930Z,56.67
2018-11-23T04:49:09.974Z,65.00
2018-11-23T04:51:38.023Z,56.50
2018-11-23T04:54:06.287Z,60.70
2018-11-23T04:56:34.328Z,61.80
2018-11-23T04:59:02.427Z,61.27
2018-11-23T05:01:30.466Z,64.27
2018-11-23T05:03:58.514Z,60.93
2018-11-23T05:06:26.571Z,59.87
2018-11-23T05:08:54.590Z,57.03
2018-11-23T05:11:22.683Z,62.77
2018-11-23T05:13:50.725Z,54.00
2018-11-23T05:16:18.794Z,54.63
2018-11-23T05:18:46.860Z,58.37
2018-11-23T05:21:14.925Z,65.97
2018-11-23T05:23:42.991Z,58.50
2018-11-23T05:26:11.014Z,65.70
2018-11-23T05:28:39.077Z,71.30
2018-11-23T05:31:07.115Z,70.97
2018-11-23T05:33:35.231Z,68.97
2018-11-23T05:36:03.275Z,62.73
2018-11-23T05:38:31.359Z,67.70
2018-11-23T05:40:59.392Z,64.37
2018-11-23T05:43:27.497Z,73.80
2018-11-23T05:45:55.564Z,66.00
2018-11-23T05:48:26.951Z,62.57
2018-11-23T05:50:51.710Z,64.17
2018-11-23T05:53:19.795Z,71.30
2018-11-23T05:55:47.823Z,66.50
2018-11-23T05:58:15.935Z,65.10
2018-11-23T06:00:43.972Z,61.30
2018-11-23T06:03:12.579Z,73.63
2018-11-23T06:05:40.559Z,61.30
2018-11-23T06:08:08.645Z,67.23
2018-11-23T06:10:36.744Z,67.67
2018-11-23T06:13:04.785Z,61.40
2018-11-23T06:15:32.875Z,68.47
2018-11-23T06:18:00.969Z,64.40
2018-11-23T06:20:29.024Z,67.27
2018-11-23T06:22:57.129Z,69.50
2018-11-23T06:25:45.468Z,67.60
2018-11-23T06:28:13.582Z,63.40
2018-11-23T06:30:41.622Z,63.17
2018-11-23T06:33:32.996Z,72.20
2018-11-23T06:36:01.124Z,67.90
2018-11-23T06:38:29.260Z,68.87
2018-11-23T06:40:57.334Z,72.27
2018-11-23T06:43:25.450Z,71.50
2018-11-23T06:45:53.532Z,69.87
2018-11-23T06:48:21.634Z,68.33
2018-11-23T06:50:49.690Z,64.47
2018-11-23T06:53:17.739Z,69.80
2018-11-23T06:55:45.819Z,64.60
2018-11-23T06:58:13.880Z,65.33
2018-11-23T07:00:41.952Z,63.77
2018-11-23T07:03:10.034Z,64.93
2018-11-23T07:05:38.118Z,61.43
2018-11-23T07:08:07.046Z,65.60
2018-11-23T07:10:35.116Z,64.17
2018-11-23T07:13:03.172Z,62.93
2018-11-23T07:15:31.250Z,63.67
2018-11-23T07:17:59.345Z,66.03
2018-11-23T07:20:27.405Z,64.97
2018-11-23T07:22:55.461Z,59.30
2018-11-23T07:25:23.473Z,62.47
2018-11-23T07:27:51.566Z,57.37
2018-11-23T07:30:21.169Z,60.43
2018-11-23T07:32:49.242Z,58.77
2018-11-23T07:35:17.303Z,58.23
2018-11-23T07:37:45.457Z,54.30
2018-11-23T07:40:52.565Z,57.13
2018-11-23T07:43:20.663Z,59.93
2018-11-23T07:45:48.960Z,58.70
2018-11-23T07:48:17.031Z,66.50
2018-11-23T07:50:45.087Z,62.23
2018-11-23T07:53:13.209Z,65.57
2018-11-23T07:55:41.289Z,67.33
2018-11-23T07:58:09.924Z,63.23
2018-11-23T08:00:37.978Z,61.37
2018-11-23T08:03:06.167Z,62.27
2018-11-23T08:05:34.207Z,59.53
2018-11-23T08:08:02.266Z,63.50
2018-11-23T08:10:29.474Z,57.53
2018-11-23T08:12:57.498Z,60.80
2018-11-23T08:15:26.706Z,59.07
2018-11-23T08:17:54.772Z,61.90
2018-11-23T08:20:23.881Z,60.60
2018-11-23T08:22:51.964Z,60.73
2018-11-23T08:25:21.262Z,57.80
2018-11-23T08:27:50.454Z,62.50
2018-11-23T08:30:20.752Z,60.57
2018-11-23T08:32:48.810Z,61.27
2018-11-23T08:35:16.868Z,60.43
2018-11-23T08:37:44.996Z,57.00
2018-11-23T08:40:32.243Z,54.67
2018-11-23T08:43:00.356Z,60.10
2018-11-23T08:45:28.410Z,58.33
2018-11-23T08:47:56.512Z,55.10
2018-11-23T08:50:28.802Z,57.57
2018-11-23T08:52:56.896Z,62.43
2018-11-23T08:58:12.942Z,58.33
2018-11-23T09:00:41.037Z,57.87
2018-11-23T09:03:09.111Z,63.27
2018-11-23T09:05:37.191Z,57.07
2018-11-23T09:08:05.632Z,58.00
2018-11-23T09:10:33.724Z,62.47
2018-11-23T09:13:03.286Z,54.50
2018-11-23T09:15:31.398Z,55.93
2018-11-23T09:17:59.476Z,58.47
2018-11-23T09:20:27.519Z,56.07
2018-11-23T09:22:55.594Z,54.70
2018-11-23T09:25:24.075Z,48.63
2018-11-23T09:27:52.349Z,50.70
2018-11-23T09:30:21.668Z,51.80
2018-11-23T09:32:50.560Z,55.03
2018-11-23T09:35:18.685Z,56.83
2018-11-23T09:37:47.219Z,53.40
2018-11-23T09:40:16.666Z,50.83
2018-11-23T09:42:44.743Z,52.57
2018-11-23T09:45:15.174Z,53.03
2018-11-23T09:47:44.084Z,57.33
2018-11-23T09:50:13.557Z,55.60
2018-11-23T09:52:41.966Z,57.87
2018-11-23T09:55:10.298Z,56.17
2018-11-23T09:57:38.732Z,52.50
2018-11-23T10:00:27.551Z,50.80
2018-11-23T10:02:56.479Z,52.07
2018-11-23T10:05:25.346Z,53.20
2018-11-23T10:07:54.988Z,52.67
2018-11-23T10:10:23.850Z,51.53
2018-11-23T10:12:52.282Z,50.93
2018-11-23T10:15:21.020Z,47.57
2018-11-23T10:17:49.108Z,48.50
2018-11-23T10:20:36.532Z,49.97
2018-11-23T10:23:04.799Z,48.03
2018-11-23T10:25:34.224Z,47.60
2018-11-23T10:28:02.268Z,50.97
2018-11-23T10:30:31.629Z,55.70
2018-11-23T10:33:01.022Z,51.20
2018-11-23T10:35:29.313Z,52.37
2018-11-23T10:38:16.496Z,53.97
2018-11-23T10:40:44.615Z,53.50
2018-11-23T10:43:12.657Z,51.63
2018-11-23T10:45:40.683Z,52.37
2018-11-23T10:48:09.237Z,54.63
2018-11-23T10:50:38.828Z,51.37
2018-11-23T10:53:07.251Z,46.57
2018-11-23T10:55:36.120Z,51.43
2018-11-23T10:58:04.339Z,51.27
2018-11-23T11:00:51.587Z,54.27
2018-11-23T11:03:38.906Z,51.17
2018-11-23T11:06:26.991Z,48.77
2018-11-23T11:08:56.453Z,52.77
2018-11-23T11:11:24.489Z,54.63
2018-11-23T11:13:52.575Z,52.93
2018-11-23T11:16:20.652Z,51.97
2018-11-23T11:18:48.678Z,53.13
2018-11-23T11:21:16.780Z,53.40
2018-11-23T11:23:44.806Z,55.87
2018-11-23T11:26:12.887Z,54.97
2018-11-23T11:28:40.919Z,52.20
2018-11-23T11:31:13.064Z,53.20
2018-11-23T11:33:41.101Z,49.67
2018-11-23T11:36:09.216Z,49.53
2018-11-23T11:38:37.277Z,46.57
2018-11-23T11:41:05.358Z,51.27
2018-11-23T11:43:33.412Z,49.13
2018-11-23T11:46:01.473Z,49.63
2018-11-23T11:48:29.552Z,51.37
2018-11-23T11:50:57.628Z,52.30
2018-11-23T11:57:33.087Z,47.77
2018-11-23T12:00:00.571Z,47.20
2018-11-23T12:02:28.053Z,50.90
2018-11-23T12:04:55.999Z,45.13
2018-11-23T12:07:23.932Z,46.70
2018-11-23T12:09:51.636Z,49.63
2018-11-23T12:12:18.971Z,49.37
2018-11-23T12:14:46.318Z,48.57
2018-11-23T12:17:13.815Z,47.00
2018-11-23T12:19:41.259Z,45.00
2018-11-23T12:22:08.610Z,50.27
2018-11-23T12:24:36.042Z,49.80
2018-11-23T12:27:03.355Z,44.93
2018-11-23T12:29:30.732Z,45.17
2018-11-23T12:31:58.156Z,44.97
2018-11-23T12:34:25.584Z,46.83
2018-11-23T12:36:52.964Z,49.83
2018-11-23T12:39:20.327Z,52.90
2018-11-23T12:41:47.674Z,43.43
2018-11-23T12:44:15.131Z,51.00
2018-11-23T12:46:42.520Z,45.87
2018-11-23T12:49:09.976Z,44.10
2018-11-23T12:51:37.392Z,46.87
2018-11-23T12:54:05.843Z,48.57
2018-11-23T12:56:33.278Z,45.63
2018-11-23T12:59:00.750Z,46.47
2018-11-23T13:01:28.218Z,47.53
2018-11-23T13:03:55.653Z,42.03
2018-11-23T13:06:23.117Z,49.53
2018-11-23T13:08:50.479Z,43.23
2018-11-23T13:11:17.989Z,46.30
2018-11-23T13:13:45.571Z,43.57
2018-11-23T13:16:12.923Z,39.20
2018-11-23T13:18:40.484Z,42.30
2018-11-23T13:21:08.005Z,46.53
2018-11-23T13:23:35.692Z,47.97
2018-11-23T13:26:03.070Z,47.90
2018-11-23T13:28:30.397Z,45.63
2018-11-23T13:30:57.769Z,47.73
2018-11-23T13:33:25.193Z,47.33
2018-11-23T13:35:52.568Z,44.20
2018-11-23T13:38:19.947Z,44.07
2018-11-23T13:40:47.299Z,42.73
2018-11-23T13:43:14.667Z,41.37
2018-11-23T13:45:42.028Z,45.70
2018-11-23T13:48:09.462Z,41.83
2018-11-23T13:50:36.895Z,45.33
2018-11-23T13:53:04.338Z,47.33
2018-11-23T13:55:31.680Z,46.40
2018-11-23T13:57:59.179Z,43.47
2018-11-23T14:00:27.936Z,44.57
2018-11-23T14:02:55.321Z,43.43
2018-11-23T14:05:24.092Z,44.23
2018-11-23T14:07:52.922Z,45.80
2018-11-23T14:10:21.549Z,46.03
2018-11-23T14:12:49.192Z,43.27
2018-11-23T14:15:19.099Z,40.10
2018-11-23T14:17:47.412Z,45.47
2018-11-23T14:20:15.760Z,47.03
2018-11-23T14:22:43.256Z,45.47
2018-11-23T14:25:13.040Z,43.57
2018-11-23T14:27:41.340Z,45.67
2018-11-23T14:30:13.299Z,48.97
2018-11-23T14:32:40.843Z,43.57
2018-11-23T14:35:10.725Z,46.33
2018-11-23T14:37:38.870Z,48.97
2018-11-23T14:40:06.989Z,43.47
2018-11-23T14:42:34.482Z,45.43
2018-11-23T14:45:01.955Z,45.43
2018-11-23T14:47:29.663Z,42.63
2018-11-23T14:49:57.049Z,41.77
2018-11-23T14:52:24.505Z,47.00
2018-11-23T14:54:52.189Z,43.60
2018-11-23T14:57:19.852Z,42.57
2018-11-23T14:59:47.301Z,47.13
2018-11-23T15:02:15.446Z,43.33
2018-11-23T15:04:42.932Z,50.23
2018-11-23T15:07:10.389Z,40.67
2018-11-23T15:09:37.794Z,44.33
2018-11-23T15:12:05.318Z,44.23
2018-11-23T15:14:32.729Z,44.87
2018-11-23T15:17:00.081Z,46.30
2018-11-23T15:19:27.632Z,42.90
2018-11-23T15:21:54.955Z,41.53
2018-11-23T15:24:22.360Z,46.87
2018-11-23T15:26:49.791Z,39.77
2018-11-23T15:29:17.136Z,41.80
2018-11-23T15:31:44.504Z,44.90
2018-11-23T15:34:12.044Z,47.93
2018-11-23T15:36:39.492Z,44.80
2018-11-23T15:39:09.346Z,47.43
2018-11-23T15:41:37.376Z,50.77
2018-11-23T15:44:05.429Z,45.27
2018-11-23T15:46:32.798Z,46.30
2018-11-23T15:49:00.198Z,48.67
2018-11-23T15:51:27.540Z,48.80
2018-11-23T15:53:55.145Z,46.07
2018-11-23T15:56:23.070Z,46.03
2018-11-23T15:58:50.391Z,43.70
2018-11-23T16:01:17.919Z,41.30
2018-11-23T16:03:45.400Z,46.10
2018-11-23T16:06:12.905Z,41.20
2018-11-23T16:08:40.338Z,44.17
2018-11-23T16:11:07.891Z,42.33
2018-11-23T16:13:35.963Z,48.93
2018-11-23T16:16:03.295Z,47.77
2018-11-23T16:18:30.713Z,49.47
2018-11-23T16:20:58.319Z,45.20
2018-11-23T16:23:25.781Z,47.37
2018-11-23T16:25:53.199Z,43.43
2018-11-23T16:28:21.189Z,44.03
2018-11-23T16:30:49.921Z,43.87
2018-11-23T16:33:19.266Z,52.73
2018-11-23T16:35:46.719Z,49.87
2018-11-23T16:38:16.661Z,48.33
2018-11-23T16:40:46.519Z,44.23
2018-11-23T16:43:15.191Z,42.97
2018-11-23T16:45:43.175Z,41.83
2018-11-23T16:48:11.730Z,41.37
2018-11-23T16:50:39.243Z,45.97
2018-11-23T16:53:06.716Z,41.40
2018-11-23T16:55:34.497Z,41.33
2018-11-23T16:58:06.431Z,41.83
2018-11-23T17:00:35.362Z,39.83
2018-11-23T17:03:05.132Z,44.70
2018-11-23T17:05:34.217Z,40.97
2018-11-23T17:08:01.722Z,46.47
2018-11-23T17:10:29.153Z,43.97
2018-11-23T17:12:56.680Z,44.90
2018-11-23T17:15:26.115Z,44.80
2018-11-23T17:17:54.140Z,45.63
2018-11-23T17:20:23.057Z,46.67
2018-11-23T17:22:51.572Z,40.60
2018-11-23T17:25:20.296Z,42.43
2018-11-23T17:27:48.482Z,46.07
2018-11-23T17:30:18.914Z,42.13
2018-11-23T17:32:46.442Z,48.00
2018-11-23T17:35:14.458Z,50.40
2018-11-23T17:37:42.272Z,50.77
2018-11-23T17:40:11.362Z,51.77
2018-11-23T17:42:38.779Z,50.10
2018-11-23T17:45:09.297Z,51.57
2018-11-23T17:47:36.766Z,50.43
2018-11-23T17:50:06.143Z,51.50
2018-11-23T17:52:33.460Z,55.13
2018-11-23T17:55:00.796Z,54.77
2018-11-23T17:57:28.254Z,52.10
2018-11-23T17:59:55.807Z,49.37
2018-11-23T18:02:25.603Z,51.87
2018-11-23T18:04:53.043Z,59.37
2018-11-23T18:07:20.461Z,56.70
2018-11-23T18:09:47.863Z,54.63
2018-11-23T18:12:15.791Z,53.00
2018-11-23T18:14:43.193Z,51.57
2018-11-23T18:17:11.724Z,57.80
2018-11-23T18:19:39.135Z,57.67
2018-11-23T18:22:07.407Z,49.23
2018-11-23T18:24:34.936Z,55.23
2018-11-23T18:27:03.020Z,50.90
2018-11-23T18:29:30.624Z,52.67
2018-11-23T18:31:58.104Z,47.60
2018-11-23T18:34:25.576Z,51.20
2018-11-23T18:36:53.095Z,51.93
2018-11-23T18:39:20.420Z,49.47
2018-11-23T18:41:47.776Z,47.90
2018-11-23T18:44:15.274Z,47.73
2018-11-23T18:46:42.661Z,45.93
2018-11-23T18:49:10.145Z,50.27
2018-11-23T18:51:37.586Z,47.97
2018-11-23T18:54:05.241Z,48.33
2018-11-23T18:56:32.619Z,45.83
2018-11-23T18:59:00.793Z,49.63
2018-11-23T19:01:28.302Z,45.50
2018-11-23T19:03:55.689Z,45.93
2018-11-23T19:06:23.129Z,49.07
2018-11-23T19:08:50.696Z,47.50
2018-11-23T19:11:20.183Z,52.80
2018-11-23T19:13:47.591Z,47.10
2018-11-23T19:16:14.967Z,48.60
2018-11-23T19:18:42.493Z,55.93
2018-11-23T19:21:09.901Z,48.43
2018-11-23T19:23:37.519Z,49.80
2018-11-23T19:26:05.344Z,46.47
2018-11-23T19:28:32.691Z,47.67
2018-11-23T19:31:00.054Z,45.37
2018-11-23T19:33:27.622Z,45.13
2018-11-23T19:35:54.983Z,43.93
2018-11-23T19:38:22.321Z,44.97
2018-11-23T19:40:49.772Z,40.33
2018-11-23T19:43:17.303Z,39.60
2018-11-23T19:45:45.552Z,44.90
2018-11-23T19:48:12.917Z,41.33
2018-11-23T19:50:40.391Z,44.40
2018-11-23T19:53:07.821Z,55.77
2018-11-23T19:55:35.350Z,52.97
2018-11-23T19:58:02.791Z,59.87
2018-11-23T20:00:30.191Z,59.77
2018-11-23T20:02:57.564Z,64.30
2018-11-23T20:05:24.939Z,63.17
2018-11-23T20:07:54.716Z,67.13
2018-11-23T20:10:22.910Z,57.20
2018-11-23T20:12:51.724Z,58.10
2018-11-23T20:15:19.270Z,51.77
2018-11-23T20:17:47.351Z,50.97
2018-11-23T20:20:15.794Z,47.70
2018-11-23T20:22:43.678Z,47.97
2018-11-23T20:25:13.414Z,52.97
2018-11-23T20:27:40.872Z,87.03
2018-11-23T20:30:12.739Z,104.57
2018-11-23T20:32:40.122Z,93.40
2018-11-23T20:35:10.417Z,76.93
2018-11-23T20:37:37.917Z,93.00
2018-11-23T20:40:11.241Z,77.03
2018-11-23T20:42:38.959Z,85.53
2018-11-23T20:45:12.640Z,113.13
2018-11-23T20:47:40.241Z,105.47
2018-11-23T20:50:10.343Z,81.43
2018-11-23T20:52:38.277Z,94.60
2018-11-23T20:55:12.124Z,79.30
2018-11-23T20:57:39.620Z,91.20
2018-11-23T21:00:12.349Z,70.73
2018-11-23T21:02:39.881Z,65.70
2018-11-23T21:05:10.482Z,106.97
2018-11-23T21:07:38.127Z,91.17
2018-11-23T21:10:36.944Z,71.83
2018-11-23T21:13:04.657Z,85.33
2018-11-23T21:15:33.965Z,84.63
2018-11-23T21:18:02.916Z,83.73
2018-11-23T21:20:31.396Z,46.47
2018-11-23T21:22:58.864Z,47.40
2018-11-23T21:25:26.362Z,38.03
2018-11-23T21:27:54.029Z,37.00
2018-11-23T21:30:22.654Z,32.50
2018-11-23T21:32:50.685Z,47.37
2018-11-23T21:35:18.524Z,46.47
2018-11-23T21:37:45.858Z,45.50
2018-11-23T21:40:15.385Z,57.77
2018-11-23T21:42:42.822Z,39.67
2018-11-23T21:45:15.456Z,39.33
2018-11-23T21:47:43.490Z,36.80
2018-11-23T21:50:12.155Z,41.53
2018-11-23T21:52:39.572Z,34.43
2018-11-23T21:55:09.100Z,42.07
2018-11-23T21:57:36.791Z,46.47
2018-11-23T22:00:05.337Z,35.13
2018-11-23T22:02:32.673Z,34.27
2018-11-23T22:05:00.081Z,35.20
2018-11-23T22:07:27.565Z,36.37
2018-11-23T22:09:55.049Z,33.13
2018-11-23T22:12:22.425Z,36.30
2018-11-23T22:14:49.885Z,34.07
2018-11-23T22:17:17.436Z,38.33
2018-11-23T22:19:44.763Z,29.77
2018-11-23T22:22:12.136Z,36.00
2018-11-23T22:24:39.649Z,36.00
2018-11-23T22:27:07.729Z,38.60
2018-11-23T22:29:35.231Z,35.87
2018-11-23T22:32:02.746Z,36.53
2018-11-23T22:34:30.165Z,30.40
2018-11-23T22:36:57.644Z,32.53
2018-11-23T22:39:25.061Z,33.23
2018-11-23T22:41:52.450Z,30.80
2018-11-23T22:44:19.982Z,33.77
2018-11-23T22:46:48.145Z,32.03
2018-11-23T22:49:15.672Z,39.53
2018-11-23T22:51:43.129Z,27.87
2018-11-23T22:54:10.459Z,31.10
2018-11-23T22:56:37.838Z,30.53
2018-11-23T22:59:05.575Z,25.93
2018-11-23T23:01:32.972Z,31.23
2018-11-23T23:04:00.366Z,27.50
2018-11-23T23:06:27.742Z,31.60
2018-11-23T23:08:55.104Z,39.17
2018-11-23T23:11:22.486Z,31.27
2018-11-23T23:13:49.936Z,34.23
2018-11-23T23:16:17.286Z,26.27
2018-11-23T23:18:45.344Z,26.37
2018-11-23T23:21:12.808Z,30.93
2018-11-23T23:23:40.242Z,42.70
2018-11-23T23:26:07.602Z,30.57
2018-11-23T23:28:35.037Z,33.80
2018-11-23T23:31:02.469Z,35.43
2018-11-23T23:33:29.831Z,29.27
2018-11-23T23:35:57.310Z,26.53
2018-11-23T23:38:24.973Z,26.30
2018-11-23T23:40:52.407Z,26.10
2018-11-23T23:43:19.833Z,31.20
2018-11-23T23:45:47.175Z,25.57
2018-11-23T23:48:14.581Z,24.40
2018-11-23T23:50:41.984Z,44.33
2018-11-23T23:53:09.468Z,33.10
2018-11-23T23:55:36.940Z,27.10
2018-11-23T23:58:05.067Z,32.20
